Time;durP1;ratioP1;P1;durP2;ratioP2;P2;SDS_P1;SDS_P2;PMS_P1;PMS_P2;Temp;Humidity;BMP_temperature;BMP_pressure;BME280_temperature;BME280_humidity;BME280_pressure;Samples;Min_cycle;Max_cycle;Signal;HPM_P1;HPM_P2
2024/04/11 00:02:14;;;;;;;0.70;0.40;;;;;;;;;;5484314;26;20017;-61
2024/04/11 00:04:40;;;;;;;1.10;0.47;;;;;;;;;;5483769;26;19990;-60
2024/04/11 00:07:06;;;;;;;0.82;0.40;;;;;;;;;;5483759;26;19999;-61
2024/04/11 00:09:31;;;;;;;0.55;0.38;;;;;;;;;;5484069;26;20013;-59
2024/04/11 00:11:56;;;;;;;0.30;0.20;;;;;;;;;;5483825;26;20002;-58
2024/04/11 00:14:21;;;;;;;0.50;0.32;;;;;;;;;;5483443;26;19995;-53
2024/04/11 00:16:47;;;;;;;0.52;0.35;;;;;;;;;;5483651;26;20104;-50
2024/04/11 00:19:12;;;;;;;0.40;0.30;;;;;;;;;;5484027;26;19998;-49
2024/04/11 00:21:38;;;;;;;0.77;0.38;;;;;;;;;;5485365;26;20334;-49
2024/04/11 00:24:04;;;;;;;0.77;0.30;;;;;;;;;;5487514;26;19990;-49
2024/04/11 00:26:30;;;;;;;0.40;0.38;;;;;;;;;;5487551;26;20469;-52
2024/04/11 00:28:55;;;;;;;0.30;0.30;;;;;;;;;;5486805;26;20000;-51
2024/04/11 00:31:20;;;;;;;0.77;0.40;;;;;;;;;;5487554;26;20029;-49
2024/04/11 00:33:55;;;;;;;1.83;0.40;;;;;;;;;;5487434;26;19994;-52
2024/04/11 00:36:24;;;;;;;0.50;0.30;;;;;;;;;;5487078;26;20046;-55
2024/04/11 00:38:51;;;;;;;0.43;0.35;;;;;;;;;;5463432;26;20007;-50
2024/04/11 00:41:17;;;;;;;0.30;0.22;;;;;;;;;;5478848;26;20349;-51
2024/04/11 00:43:43;;;;;;;0.60;0.30;;;;;;;;;;5484284;26;20509;-51
2024/04/11 00:46:09;;;;;;;0.98;0.40;;;;;;;;;;5486750;26;20354;-49
2024/04/11 00:48:36;;;;;;;0.88;0.30;;;;;;;;;;5487000;26;20013;-54
2024/04/11 00:51:01;;;;;;;0.55;0.30;;;;;;;;;;5479502;26;20013;-51
2024/04/11 00:53:27;;;;;;;1.05;0.40;;;;;;;;;;5468059;26;20002;-53
2024/04/11 00:55:54;;;;;;;0.40;0.30;;;;;;;;;;5486967;26;20306;-52
2024/04/11 00:58:22;;;;;;;1.45;0.40;;;;;;;;;;5487024;26;20073;-52
2024/04/11 01:00:48;;;;;;;0.28;0.28;;;;;;;;;;5486201;26;20059;-54
2024/04/11 01:03:14;;;;;;;0.32;0.30;;;;;;;;;;5479490;26;20003;-52
2024/04/11 01:05:40;;;;;;;0.60;0.40;;;;;;;;;;5480432;26;19998;-48
2024/04/11 01:08:08;;;;;;;0.60;0.35;;;;;;;;;;5486509;26;20013;-53
2024/04/11 01:10:34;;;;;;;0.35;0.32;;;;;;;;;;5486293;26;20010;-50
2024/04/11 01:13:02;;;;;;;0.65;0.38;;;;;;;;;;5486941;26;20038;-51
2024/04/11 01:15:27;;;;;;;0.55;0.30;;;;;;;;;;5486542;26;20333;-53
2024/04/11 01:17:52;;;;;;;0.40;0.30;;;;;;;;;;5486031;26;20013;-51
2024/04/11 01:20:18;;;;;;;0.75;0.30;;;;;;;;;;5486792;26;20002;-54
2024/04/11 01:22:43;;;;;;;1.77;0.57;;;;;;;;;;5486963;26;19998;-55
2024/04/11 01:25:08;;;;;;;0.30;0.30;;;;;;;;;;5485983;26;20002;-54
2024/04/11 01:27:34;;;;;;;0.75;0.38;;;;;;;;;;5480822;26;20006;-52
2024/04/11 01:30:02;;;;;;;0.40;0.30;;;;;;;;;;5454578;26;20005;-51
2024/04/11 01:32:28;;;;;;;0.50;0.38;;;;;;;;;;5484773;26;20089;-54
2024/04/11 01:34:56;;;;;;;0.65;0.35;;;;;;;;;;5486476;26;19994;-48
2024/04/11 01:37:22;;;;;;;0.30;0.30;;;;;;;;;;5486309;26;20009;-52
2024/04/11 01:39:47;;;;;;;0.40;0.30;;;;;;;;;;5482688;26;20026;-53
2024/04/11 01:42:12;;;;;;;0.80;0.30;;;;;;;;;;5485844;26;20074;-49
2024/04/11 01:44:38;;;;;;;0.43;0.30;;;;;;;;;;5483248;26;20025;-52
2024/04/11 01:47:03;;;;;;;0.52;0.40;;;;;;;;;;5486152;26;20371;-52
2024/04/11 01:49:31;;;;;;;0.45;0.30;;;;;;;;;;5485789;26;20416;-47
2024/04/11 01:51:57;;;;;;;2.30;0.30;;;;;;;;;;5485886;26;20021;-53
2024/04/11 01:54:23;;;;;;;0.20;0.20;;;;;;;;;;5486253;26;20038;-50
2024/04/11 01:56:49;;;;;;;0.65;0.30;;;;;;;;;;5485535;26;20003;-50
2024/04/11 01:59:16;;;;;;;0.45;0.30;;;;;;;;;;5485707;26;20446;-49
2024/04/11 02:01:42;;;;;;;0.25;0.25;;;;;;;;;;5480482;26;20005;-49
2024/04/11 02:04:09;;;;;;;0.52;0.28;;;;;;;;;;5485223;26;20071;-52
2024/04/11 02:06:38;;;;;;;1.55;0.50;;;;;;;;;;5486134;26;19998;-49
2024/04/11 02:09:11;;;;;;;0.50;0.40;;;;;;;;;;5448051;26;20054;-50
2024/04/11 02:11:38;;;;;;;1.08;0.30;;;;;;;;;;5485116;26;20752;-52
2024/04/11 02:14:04;;;;;;;1.25;0.45;;;;;;;;;;5481739;26;20005;-51
2024/04/11 02:16:34;;;;;;;0.82;0.35;;;;;;;;;;5485575;26;20704;-52
2024/04/11 02:19:00;;;;;;;0.30;0.30;;;;;;;;;;5485761;26;20396;-50
2024/04/11 02:21:25;;;;;;;0.65;0.30;;;;;;;;;;5485355;26;20453;-52
2024/04/11 02:23:50;;;;;;;0.32;0.22;;;;;;;;;;5485673;26;20002;-49
2024/04/11 02:26:16;;;;;;;0.47;0.30;;;;;;;;;;5485996;26;20002;-52
2024/04/11 02:28:44;;;;;;;0.38;0.30;;;;;;;;;;5484231;26;20013;-53
2024/04/11 02:31:11;;;;;;;0.65;0.40;;;;;;;;;;5485799;26;20002;-52
2024/04/11 02:33:37;;;;;;;0.20;0.20;;;;;;;;;;5485409;26;20009;-49
2024/04/11 02:36:07;;;;;;;0.20;0.20;;;;;;;;;;5485308;26;20732;-50
2024/04/11 02:38:33;;;;;;;0.28;0.28;;;;;;;;;;5485450;26;20002;-52
2024/04/11 02:40:58;;;;;;;0.40;0.30;;;;;;;;;;5485420;26;20020;-48
2024/04/11 02:43:24;;;;;;;0.22;0.22;;;;;;;;;;5483686;26;19998;-50
2024/04/11 02:45:49;;;;;;;0.30;0.30;;;;;;;;;;5485177;26;19998;-53
2024/04/11 02:48:15;;;;;;;0.32;0.30;;;;;;;;;;5485590;26;20002;-49
2024/04/11 02:50:41;;;;;;;0.73;0.30;;;;;;;;;;5485013;26;20644;-51
2024/04/11 02:53:09;;;;;;;0.30;0.30;;;;;;;;;;5484796;26;20448;-51
2024/04/11 02:55:35;;;;;;;0.30;0.20;;;;;;;;;;5485258;26;20437;-48
2024/04/11 02:58:01;;;;;;;0.35;0.30;;;;;;;;;;5485047;26;20073;-52
2024/04/11 03:00:26;;;;;;;0.20;0.20;;;;;;;;;;5484722;26;20002;-51
2024/04/11 03:02:52;;;;;;;0.40;0.30;;;;;;;;;;5485137;26;20017;-50
2024/04/11 03:05:19;;;;;;;0.38;0.38;;;;;;;;;;5485139;26;20515;-52
2024/04/11 03:07:44;;;;;;;0.30;0.30;;;;;;;;;;5476679;26;19998;-52
2024/04/11 03:10:10;;;;;;;0.30;0.30;;;;;;;;;;5483360;26;20033;-53
2024/04/11 03:12:35;;;;;;;0.40;0.40;;;;;;;;;;5485166;26;20071;-50
2024/04/11 03:15:03;;;;;;;0.30;0.30;;;;;;;;;;5484417;26;20002;-51
2024/04/11 03:17:30;;;;;;;0.38;0.38;;;;;;;;;;5471245;26;20596;-50
2024/04/11 03:19:56;;;;;;;0.55;0.40;;;;;;;;;;5484806;26;19994;-49
2024/04/11 03:22:21;;;;;;;0.20;0.20;;;;;;;;;;5485010;26;20012;-52
2024/04/11 03:24:46;;;;;;;0.60;0.35;;;;;;;;;;5484026;26;20086;-49
2024/04/11 03:27:13;;;;;;;0.30;0.30;;;;;;;;;;5484762;26;20433;-51
2024/04/11 03:29:39;;;;;;;0.43;0.40;;;;;;;;;;5484485;26;19998;-53
2024/04/11 03:32:05;;;;;;;0.50;0.20;;;;;;;;;;5484161;26;20014;-48
2024/04/11 03:34:31;;;;;;;0.30;0.30;;;;;;;;;;5481429;26;20450;-52
2024/04/11 03:36:56;;;;;;;0.57;0.30;;;;;;;;;;5482896;26;20006;-51
2024/04/11 03:39:22;;;;;;;0.45;0.25;;;;;;;;;;5484067;26;20524;-49
2024/04/11 03:41:49;;;;;;;0.82;0.45;;;;;;;;;;5484422;26;20894;-54
2024/04/11 03:44:15;;;;;;;1.92;0.30;;;;;;;;;;5484474;26;20018;-59
2024/04/11 03:46:40;;;;;;;0.32;0.30;;;;;;;;;;5451851;26;20412;-61
2024/04/11 03:49:06;;;;;;;0.68;0.38;;;;;;;;;;5484139;26;19998;-54
2024/04/11 03:51:38;;;;;;;0.30;0.30;;;;;;;;;;5484589;26;20013;-60
2024/04/11 03:54:04;;;;;;;0.30;0.30;;;;;;;;;;5484213;26;20002;-59
2024/04/11 03:56:30;;;;;;;0.60;0.40;;;;;;;;;;5486952;26;20366;-62
2024/04/11 03:58:57;;;;;;;3.50;0.50;;;;;;;;;;5487899;26;20002;-61
2024/04/11 04:01:23;;;;;;;0.40;0.20;;;;;;;;;;5483324;26;20022;-50
2024/04/11 04:03:51;;;;;;;0.75;0.30;;;;;;;;;;5479339;26;20327;-51
2024/04/11 04:06:17;;;;;;;0.73;0.43;;;;;;;;;;5479542;26;19998;-49
2024/04/11 04:08:45;;;;;;;0.25;0.25;;;;;;;;;;5480275;26;20002;-50
2024/04/11 04:11:11;;;;;;;0.77;0.40;;;;;;;;;;5483739;26;20049;-52
2024/04/11 04:13:37;;;;;;;0.25;0.25;;;;;;;;;;5487824;26;20002;-53
2024/04/11 04:16:10;;;;;;;0.40;0.32;;;;;;;;;;5482657;26;20010;-49
2024/04/11 04:18:52;;;;;;;0.52;0.30;;;;;;;;;;5478114;26;20003;-50
2024/04/11 04:21:20;;;;;;;0.45;0.40;;;;;;;;;;5480125;26;19998;-52
2024/04/11 04:23:48;;;;;;;0.73;0.43;;;;;;;;;;5487503;26;19998;-48
2024/04/11 04:26:16;;;;;;;0.43;0.40;;;;;;;;;;5487098;26;20013;-49
2024/04/11 04:28:42;;;;;;;0.60;0.40;;;;;;;;;;5487216;26;20330;-49
2024/04/11 04:31:20;;;;;;;0.32;0.30;;;;;;;;;;5487337;26;20002;-53
2024/04/11 04:33:47;;;;;;;1.00;0.30;;;;;;;;;;5487186;26;20066;-52
2024/04/11 04:36:24;;;;;;;0.60;0.38;;;;;;;;;;5485105;26;20006;-49
2024/04/11 04:38:50;;;;;;;0.75;0.45;;;;;;;;;;5487093;26;20036;-49
2024/04/11 04:41:19;;;;;;;0.77;0.40;;;;;;;;;;5487527;26;20002;-51
2024/04/11 04:43:52;;;;;;;0.30;0.22;;;;;;;;;;5484239;26;20659;-53
2024/04/11 04:46:20;;;;;;;1.27;0.30;;;;;;;;;;5485420;26;19998;-52
2024/04/11 04:48:45;;;;;;;0.57;0.40;;;;;;;;;;5462304;26;19998;-48
2024/04/11 04:51:11;;;;;;;0.63;0.43;;;;;;;;;;5486140;26;20000;-49
2024/04/11 04:53:37;;;;;;;2.10;0.63;;;;;;;;;;5470551;26;19994;-48
2024/04/11 04:56:03;;;;;;;0.30;0.30;;;;;;;;;;5486959;26;20009;-52
2024/04/11 04:58:29;;;;;;;2.38;0.40;;;;;;;;;;5486171;26;20009;-52
2024/04/11 05:00:55;;;;;;;1.17;0.40;;;;;;;;;;5485240;26;20012;-50
2024/04/11 05:03:20;;;;;;;0.82;0.30;;;;;;;;;;5483085;26;20066;-53
2024/04/11 05:05:48;;;;;;;0.38;0.30;;;;;;;;;;5486029;26;20326;-49
2024/04/11 05:08:14;;;;;;;0.50;0.40;;;;;;;;;;5485791;26;20013;-50
2024/04/11 05:10:40;;;;;;;1.10;0.40;;;;;;;;;;5486854;26;20021;-52
2024/04/11 05:13:09;;;;;;;1.35;0.60;;;;;;;;;;5486770;26;19995;-51
2024/04/11 05:15:40;;;;;;;0.57;0.40;;;;;;;;;;5485862;26;20437;-51
2024/04/11 05:18:06;;;;;;;0.30;0.30;;;;;;;;;;5486481;26;20530;-50
2024/04/11 05:20:33;;;;;;;0.45;0.40;;;;;;;;;;5478895;26;20011;-49
2024/04/11 05:22:59;;;;;;;0.85;0.40;;;;;;;;;;5468542;26;20003;-49
2024/04/11 05:25:24;;;;;;;1.30;0.40;;;;;;;;;;5486665;26;20013;-54
2024/04/11 05:27:53;;;;;;;0.40;0.40;;;;;;;;;;5486057;26;20016;-50
2024/04/11 05:30:19;;;;;;;0.55;0.40;;;;;;;;;;5485719;26;20014;-53
2024/04/11 05:32:46;;;;;;;0.32;0.30;;;;;;;;;;5486195;26;20013;-52
2024/04/11 05:35:12;;;;;;;1.00;0.30;;;;;;;;;;5486447;26;20010;-54
2024/04/11 05:37:40;;;;;;;0.57;0.32;;;;;;;;;;5485762;26;20074;-54
2024/04/11 05:40:07;;;;;;;0.43;0.32;;;;;;;;;;5486161;26;19998;-53
2024/04/11 05:42:33;;;;;;;0.65;0.38;;;;;;;;;;5484532;26;20010;-54
2024/04/11 05:44:59;;;;;;;0.38;0.30;;;;;;;;;;5478385;26;20523;-57
2024/04/11 05:47:24;;;;;;;0.30;0.30;;;;;;;;;;5485150;26;20010;-59
2024/04/11 05:49:50;;;;;;;0.50;0.30;;;;;;;;;;5486281;26;19998;-55
2024/04/11 05:52:17;;;;;;;0.47;0.30;;;;;;;;;;5486022;26;20461;-60
2024/04/11 05:54:43;;;;;;;0.47;0.30;;;;;;;;;;5485540;26;20445;-58
2024/04/11 05:57:08;;;;;;;0.98;0.35;;;;;;;;;;5485894;26;20005;-48
2024/04/11 05:59:36;;;;;;;0.52;0.40;;;;;;;;;;5485903;26;20039;-49
2024/04/11 06:02:03;;;;;;;0.70;0.35;;;;;;;;;;5485533;26;20017;-52
2024/04/11 06:04:29;;;;;;;1.55;0.38;;;;;;;;;;5485851;26;20002;-51
2024/04/11 06:06:54;;;;;;;0.50;0.40;;;;;;;;;;5485965;26;20705;-51
2024/04/11 06:09:19;;;;;;;0.38;0.30;;;;;;;;;;5485555;26;20006;-54
2024/04/11 06:11:45;;;;;;;0.57;0.40;;;;;;;;;;5485414;26;20013;-58
2024/04/11 06:14:10;;;;;;;0.30;0.30;;;;;;;;;;5485851;26;20013;-58
2024/04/11 06:16:39;;;;;;;0.52;0.40;;;;;;;;;;5485786;26;19998;-62
2024/04/11 06:19:05;;;;;;;2.10;0.52;;;;;;;;;;5484844;26;20013;-63
2024/04/11 06:21:36;;;;;;;0.85;0.40;;;;;;;;;;5485783;26;19998;-58
2024/04/11 06:24:02;;;;;;;0.30;0.30;;;;;;;;;;5485703;26;20009;-59
2024/04/11 06:26:28;;;;;;;0.50;0.40;;;;;;;;;;5452301;26;20001;-54
2024/04/11 06:28:54;;;;;;;0.35;0.30;;;;;;;;;;5485477;26;20013;-54
2024/04/11 06:31:24;;;;;;;1.92;0.45;;;;;;;;;;5485603;26;20445;-52
2024/04/11 06:33:54;;;;;;;0.38;0.38;;;;;;;;;;5484520;26;20070;-50
2024/04/11 06:36:20;;;;;;;3.80;0.47;;;;;;;;;;5485476;26;19998;-52
2024/04/11 06:38:46;;;;;;;0.60;0.40;;;;;;;;;;5483637;26;20002;-53
2024/04/11 06:41:18;;;;;;;0.32;0.30;;;;;;;;;;5484637;26;20026;-53
2024/04/11 06:43:45;;;;;;;1.83;0.40;;;;;;;;;;5484908;26;20497;-53
2024/04/11 06:46:11;;;;;;;0.93;0.20;;;;;;;;;;5485221;26;20009;-50
2024/04/11 06:48:37;;;;;;;0.43;0.30;;;;;;;;;;5485080;26;20333;-50
2024/04/11 06:51:06;;;;;;;2.10;0.50;;;;;;;;;;5484913;26;20425;-53
2024/04/11 06:53:32;;;;;;;0.98;0.35;;;;;;;;;;5485203;26;20013;-52
2024/04/11 06:55:57;;;;;;;1.05;0.40;;;;;;;;;;5484924;26;20002;-50
2024/04/11 06:58:24;;;;;;;1.80;0.50;;;;;;;;;;5484242;26;20012;-53
2024/04/11 07:00:59;;;;;;;7.30;0.88;;;;;;;;;;5485078;26;20081;-60
2024/04/11 07:03:26;;;;;;;1.67;0.40;;;;;;;;;;5471089;26;20079;-60
2024/04/11 07:05:53;;;;;;;0.52;0.40;;;;;;;;;;5477601;26;20076;-62
2024/04/11 07:08:29;;;;;;;0.82;0.40;;;;;;;;;;5483484;26;20009;-60
2024/04/11 07:10:58;;;;;;;1.33;0.45;;;;;;;;;;5482650;26;19994;-61
2024/04/11 07:13:24;;;;;;;0.70;0.30;;;;;;;;;;5484438;26;20034;-60
2024/04/11 07:15:50;;;;;;;0.65;0.40;;;;;;;;;;5484680;26;20014;-61
2024/04/11 07:18:15;;;;;;;1.25;0.40;;;;;;;;;;5483522;26;19998;-60
2024/04/11 07:20:46;;;;;;;0.90;0.40;;;;;;;;;;5484423;26;20335;-61
2024/04/11 07:23:12;;;;;;;0.88;0.73;;;;;;;;;;5484398;26;20017;-61
2024/04/11 07:25:38;;;;;;;1.27;0.40;;;;;;;;;;5477819;26;20457;-52
2024/04/11 07:28:07;;;;;;;3.80;0.50;;;;;;;;;;5484850;26;20070;-54
2024/04/11 07:30:35;;;;;;;0.77;0.43;;;;;;;;;;5483104;26;20498;-51
2024/04/11 07:33:02;;;;;;;0.35;0.30;;;;;;;;;;5484872;26;20002;-55
2024/04/11 07:35:30;;;;;;;3.78;0.60;;;;;;;;;;5481299;26;20006;-60
2024/04/11 07:37:58;;;;;;;4.80;0.40;;;;;;;;;;5483878;26;20082;-59
2024/04/11 07:40:41;;;;;;;0.65;0.30;;;;;;;;;;5476413;26;20007;-58
2024/04/11 07:43:08;;;;;;;2.10;0.50;;;;;;;;;;5479311;26;20508;-59
2024/04/11 07:45:35;;;;;;;0.85;0.40;;;;;;;;;;5483686;26;20219;-59
2024/04/11 07:48:04;;;;;;;1.10;0.50;;;;;;;;;;5484578;26;20005;-61
2024/04/11 07:50:29;;;;;;;3.22;0.55;;;;;;;;;;5484460;26;20002;-61
2024/04/11 07:52:57;;;;;;;1.10;0.50;;;;;;;;;;5483942;26;19998;-55
2024/04/11 07:55:22;;;;;;;0.90;0.38;;;;;;;;;;5484039;26;20002;-57
2024/04/11 07:57:48;;;;;;;1.83;0.50;;;;;;;;;;5484241;26;20013;-61
2024/04/11 08:00:20;;;;;;;0.88;0.50;;;;;;;;;;5483953;26;19998;-61
2024/04/11 08:02:48;;;;;;;3.35;0.40;;;;;;;;;;5465544;26;20002;-55
2024/04/11 08:05:15;;;;;;;2.83;0.40;;;;;;;;;;5482879;26;20408;-61
2024/04/11 08:07:42;;;;;;;1.27;0.40;;;;;;;;;;5484124;26;20002;-59
2024/04/11 08:10:08;;;;;;;0.45;0.40;;;;;;;;;;5483175;26;20039;-60
2024/04/11 08:12:34;;;;;;;1.45;0.50;;;;;;;;;;5484203;26;20009;-58
2024/04/11 08:14:59;;;;;;;1.58;0.50;;;;;;;;;;5483756;26;20339;-60
2024/04/11 08:17:25;;;;;;;2.75;0.50;;;;;;;;;;5482797;26;20345;-56
2024/04/11 08:19:51;;;;;;;0.55;0.32;;;;;;;;;;5484033;26;20002;-52
2024/04/11 08:22:16;;;;;;;1.10;0.60;;;;;;;;;;5483702;26;20352;-54
2024/04/11 08:24:43;;;;;;;2.08;0.52;;;;;;;;;;5483470;26;20055;-54
2024/04/11 08:27:08;;;;;;;1.48;0.60;;;;;;;;;;5483118;26;20002;-57
2024/04/11 08:29:33;;;;;;;1.30;0.40;;;;;;;;;;5483583;26;20006;-57
2024/04/11 08:31:59;;;;;;;2.08;0.60;;;;;;;;;;5482952;26;20002;-62
2024/04/11 08:34:24;;;;;;;0.68;0.47;;;;;;;;;;5483085;26;20209;-53
2024/04/11 08:36:49;;;;;;;1.13;0.47;;;;;;;;;;5483471;26;20002;-59
2024/04/11 08:39:15;;;;;;;0.90;0.40;;;;;;;;;;5483300;26;20016;-51
2024/04/11 08:41:42;;;;;;;0.98;0.50;;;;;;;;;;5483552;26;20014;-50
2024/04/11 08:44:08;;;;;;;0.98;0.40;;;;;;;;;;5479005;26;20013;-53
2024/04/11 08:46:35;;;;;;;5.60;0.65;;;;;;;;;;5469039;26;19998;-52
2024/04/11 08:49:03;;;;;;;0.98;0.60;;;;;;;;;;5486224;26;20006;-56
2024/04/11 08:51:33;;;;;;;3.13;0.50;;;;;;;;;;5485736;26;20016;-51
2024/04/11 08:54:02;;;;;;;0.75;0.52;;;;;;;;;;5478389;26;20017;-60
2024/04/11 08:56:28;;;;;;;0.73;0.47;;;;;;;;;;5486420;26;20403;-57
2024/04/11 08:58:54;;;;;;;1.92;0.50;;;;;;;;;;5486855;26;20002;-60
2024/04/11 09:01:20;;;;;;;1.25;0.57;;;;;;;;;;5487239;26;20002;-60
2024/04/11 09:03:48;;;;;;;1.77;0.60;;;;;;;;;;5486854;26;19998;-60
2024/04/11 09:06:14;;;;;;;1.13;0.63;;;;;;;;;;5489058;26;20445;-56
2024/04/11 09:08:40;;;;;;;0.70;0.50;;;;;;;;;;5500331;26;20002;-60
2024/04/11 09:11:09;;;;;;;2.00;0.40;;;;;;;;;;5502373;26;20010;-60
2024/04/11 09:13:36;;;;;;;1.15;0.60;;;;;;;;;;5505508;26;20007;-58
2024/04/11 09:16:04;;;;;;;0.52;0.50;;;;;;;;;;5498738;26;20006;-57
2024/04/11 09:18:30;;;;;;;1.02;0.60;;;;;;;;;;5499796;26;19998;-55
2024/04/11 09:20:59;;;;;;;0.73;0.38;;;;;;;;;;5503421;25;20012;-53
2024/04/11 09:23:24;;;;;;;1.23;0.50;;;;;;;;;;5502316;26;20034;-50
2024/04/11 09:25:50;;;;;;;0.93;0.52;;;;;;;;;;5502537;25;20009;-54
2024/04/11 09:28:15;;;;;;;0.80;0.50;;;;;;;;;;5509583;26;20026;-53
2024/04/11 09:30:45;;;;;;;0.63;0.40;;;;;;;;;;5503226;26;20000;-55
2024/04/11 09:33:16;;;;;;;0.43;0.40;;;;;;;;;;5504115;26;20005;-54
2024/04/11 09:35:46;;;;;;;0.65;0.50;;;;;;;;;;5498952;26;20058;-57
2024/04/11 09:38:12;;;;;;;0.45;0.40;;;;;;;;;;5500839;25;20034;-54
2024/04/11 09:40:43;;;;;;;1.35;0.80;;;;;;;;;;5502244;26;20477;-52
2024/04/11 09:43:15;;;;;;;1.52;0.60;;;;;;;;;;5497714;25;20001;-54
2024/04/11 09:45:47;;;;;;;0.63;0.50;;;;;;;;;;5495815;26;20005;-56
2024/04/11 09:48:12;;;;;;;0.45;0.32;;;;;;;;;;5504923;26;20731;-49
2024/04/11 09:50:39;;;;;;;1.10;0.50;;;;;;;;;;5504087;26;20002;-52
2024/04/11 09:53:05;;;;;;;1.95;0.57;;;;;;;;;;5497893;26;19993;-60
2024/04/11 09:55:33;;;;;;;1.35;0.60;;;;;;;;;;5503262;26;20012;-56
2024/04/11 09:58:04;;;;;;;1.10;0.60;;;;;;;;;;5490253;26;20013;-60
2024/04/11 10:00:48;;;;;;;1.38;0.57;;;;;;;;;;5481779;26;20013;-60
2024/04/11 10:03:22;;;;;;;1.10;0.60;;;;;;;;;;5474572;26;20033;-62
2024/04/11 10:05:50;;;;;;;0.70;0.40;;;;;;;;;;5490074;26;20514;-60
2024/04/11 10:08:36;;;;;;;0.60;0.43;;;;;;;;;;5501097;26;20008;-62
2024/04/11 10:11:03;;;;;;;1.20;0.60;;;;;;;;;;5496627;26;19998;-57
2024/04/11 10:13:34;;;;;;;1.13;0.60;;;;;;;;;;5490510;26;20074;-63
2024/04/11 10:16:21;;;;;;;0.93;0.63;;;;;;;;;;5496425;25;20021;-61
2024/04/11 10:18:52;;;;;;;1.92;0.70;;;;;;;;;;5492806;26;19998;-62
2024/04/11 10:21:26;;;;;;;1.27;0.55;;;;;;;;;;5507779;26;19997;-60
2024/04/11 10:23:53;;;;;;;1.10;0.52;;;;;;;;;;5497505;26;20382;-55
2024/04/11 10:26:29;;;;;;;2.55;0.70;;;;;;;;;;5502506;26;20002;-53
2024/04/11 10:28:56;;;;;;;6.05;0.63;;;;;;;;;;5492620;26;20002;-52
2024/04/11 10:31:25;;;;;;;0.98;0.60;;;;;;;;;;5493206;26;19998;-53
2024/04/11 10:33:59;;;;;;;0.70;0.50;;;;;;;;;;5493898;25;19993;-52
2024/04/11 10:36:32;;;;;;;1.13;0.60;;;;;;;;;;5498514;26;20031;-51
2024/04/11 10:38:58;;;;;;;2.55;0.65;;;;;;;;;;5490975;26;20013;-55
2024/04/11 10:41:24;;;;;;;0.82;0.52;;;;;;;;;;5484224;26;20005;-52
2024/04/11 10:43:55;;;;;;;0.93;0.57;;;;;;;;;;5500690;26;20037;-51
2024/04/11 10:46:21;;;;;;;1.02;0.50;;;;;;;;;;5466952;26;20704;-52
2024/04/11 10:48:48;;;;;;;1.17;0.57;;;;;;;;;;5488008;26;19998;-50
2024/04/11 10:51:14;;;;;;;1.92;0.70;;;;;;;;;;5476745;26;20005;-52
2024/04/11 10:53:47;;;;;;;1.13;0.63;;;;;;;;;;5482010;26;20549;-52
2024/04/11 10:56:22;;;;;;;3.00;0.77;;;;;;;;;;5486937;26;20040;-58
2024/04/11 10:58:53;;;;;;;1.25;0.57;;;;;;;;;;5499472;26;19995;-56
2024/04/11 11:01:26;;;;;;;1.42;0.60;;;;;;;;;;5488958;26;20067;-56
2024/04/11 11:03:57;;;;;;;1.42;0.70;;;;;;;;;;5490166;26;19998;-60
2024/04/11 11:06:34;;;;;;;0.70;0.50;;;;;;;;;;5479259;26;20088;-60
2024/04/11 11:09:10;;;;;;;1.05;0.55;;;;;;;;;;5482342;26;20018;-61
2024/04/11 11:11:39;;;;;;;1.55;0.60;;;;;;;;;;5451795;26;20021;-61
2024/04/11 11:14:07;;;;;;;1.23;0.70;;;;;;;;;;5479920;26;20051;-60
2024/04/11 11:16:33;;;;;;;1.10;0.60;;;;;;;;;;5472473;26;20464;-59
2024/04/11 11:18:58;;;;;;;1.08;0.60;;;;;;;;;;5482845;26;20035;-55
2024/04/11 11:21:25;;;;;;;1.30;0.50;;;;;;;;;;5483239;26;20411;-58
2024/04/11 11:23:59;;;;;;;0.95;0.60;;;;;;;;;;5483778;26;20002;-60
2024/04/11 11:26:35;;;;;;;1.25;0.60;;;;;;;;;;5464793;26;20326;-58
2024/04/11 11:29:04;;;;;;;1.13;0.60;;;;;;;;;;5465167;26;20002;-61
2024/04/11 11:31:31;;;;;;;1.13;0.60;;;;;;;;;;5475679;26;20003;-60
2024/04/11 11:33:58;;;;;;;1.23;0.50;;;;;;;;;;5482464;26;20034;-58
2024/04/11 11:36:24;;;;;;;1.38;0.50;;;;;;;;;;5481940;26;20013;-61
2024/04/11 11:38:49;;;;;;;1.98;0.50;;;;;;;;;;5482475;26;20006;-57
2024/04/11 11:41:19;;;;;;;0.80;0.50;;;;;;;;;;5482057;26;20009;-59
2024/04/11 11:43:44;;;;;;;0.75;0.50;;;;;;;;;;5481601;26;20009;-63
2024/04/11 11:46:26;;;;;;;0.88;0.50;;;;;;;;;;5479733;26;20010;-60
2024/04/11 11:48:56;;;;;;;0.80;0.55;;;;;;;;;;5453283;26;19998;-52
2024/04/11 11:51:28;;;;;;;1.02;0.52;;;;;;;;;;5475433;26;20468;-53
2024/04/11 11:53:57;;;;;;;0.93;0.53;;;;;;;;;;5457320;26;20009;-61
2024/04/11 11:56:23;;;;;;;0.70;0.40;;;;;;;;;;5480692;26;20028;-59
2024/04/11 11:58:50;;;;;;;0.98;0.50;;;;;;;;;;5463845;26;20016;-62
2024/04/11 12:01:28;;;;;;;3.53;0.70;;;;;;;;;;5471630;26;19994;-58
2024/04/11 12:03:57;;;;;;;0.77;0.45;;;;;;;;;;5465556;26;20031;-60
2024/04/11 12:06:22;;;;;;;0.60;0.40;;;;;;;;;;5476562;26;20014;-60
2024/04/11 12:08:48;;;;;;;0.98;0.55;;;;;;;;;;5480565;26;19998;-60
2024/04/11 12:11:14;;;;;;;0.95;0.60;;;;;;;;;;5474153;26;20329;-58
2024/04/11 12:13:44;;;;;;;0.60;0.40;;;;;;;;;;5478068;26;20009;-60
2024/04/11 12:16:15;;;;;;;0.60;0.40;;;;;;;;;;5479616;26;20014;-59
2024/04/11 12:18:41;;;;;;;0.80;0.50;;;;;;;;;;5469910;26;20465;-59
2024/04/11 12:21:13;;;;;;;0.30;0.30;;;;;;;;;;5466853;26;20035;-57
2024/04/11 12:23:42;;;;;;;0.75;0.47;;;;;;;;;;5476624;26;19999;-57
2024/04/11 12:26:11;;;;;;;0.80;0.40;;;;;;;;;;5484890;26;20006;-62
2024/04/11 12:28:37;;;;;;;0.50;0.45;;;;;;;;;;5463245;26;20017;-60
2024/04/11 12:31:07;;;;;;;0.70;0.40;;;;;;;;;;5484378;26;20009;-59
2024/04/11 12:33:34;;;;;;;0.52;0.40;;;;;;;;;;5484417;26;20063;-62
2024/04/11 12:36:08;;;;;;;0.90;0.50;;;;;;;;;;5469018;26;20480;-63
2024/04/11 12:38:39;;;;;;;0.70;0.50;;;;;;;;;;5469636;26;20021;-61
2024/04/11 12:41:05;;;;;;;1.23;0.60;;;;;;;;;;5474609;26;20017;-59
2024/04/11 12:43:35;;;;;;;0.52;0.40;;;;;;;;;;5472739;26;19995;-59
2024/04/11 12:46:01;;;;;;;0.30;0.30;;;;;;;;;;5483262;26;19994;-57
2024/04/11 12:48:34;;;;;;;0.70;0.40;;;;;;;;;;5484355;26;20009;-57
2024/04/11 12:50:59;;;;;;;;;;;;;;;;;;5485665;26;20009;-57
2024/04/11 12:53:25;;;;;;;0.60;0.40;;;;;;;;;;5484518;26;19924;-61
2024/04/11 12:55:55;;;;;;;0.52;0.40;;;;;;;;;;5483462;26;19998;-59
2024/04/11 12:58:25;;;;;;;0.45;0.40;;;;;;;;;;5482965;26;20009;-60
2024/04/11 13:00:57;;;;;;;0.38;0.28;;;;;;;;;;5473348;26;20571;-60
2024/04/11 13:06:29;;;;;;;0.40;0.40;;;;;;;;;;5468240;26;19994;-59
2024/04/11 13:09:00;;;;;;;0.30;0.30;;;;;;;;;;5484443;26;20002;-57
2024/04/11 13:11:39;;;;;;;0.20;0.20;;;;;;;;;;5482091;26;20025;-58
2024/04/11 13:14:17;;;;;;;0.32;0.32;;;;;;;;;;5484416;26;20010;-58
2024/04/11 13:16:44;;;;;;;0.47;0.30;;;;;;;;;;5482154;26;20067;-60
2024/04/11 13:19:18;;;;;;;0.20;0.20;;;;;;;;;;5483647;26;19998;-57
2024/04/11 13:22:05;;;;;;;0.22;0.22;;;;;;;;;;5475946;26;19998;-62
2024/04/11 13:24:59;;;;;;;0.20;0.20;;;;;;;;;;5481196;26;19998;-56
2024/04/11 13:27:28;;;;;;;0.28;0.20;;;;;;;;;;5482007;26;20002;-58
2024/04/11 13:30:11;;;;;;;2.42;0.50;;;;;;;;;;5469076;26;20012;-62
2024/04/11 13:33:18;;;;;;;0.70;0.40;;;;;;;;;;5484207;26;20009;-60
2024/04/11 13:35:48;;;;;;;0.30;0.30;;;;;;;;;;5460816;26;19994;-57
2024/04/11 13:38:14;;;;;;;0.50;0.40;;;;;;;;;;5483172;26;20449;-58
2024/04/11 13:43:06;;;;;;;0.82;0.40;;;;;;;;;;5482371;26;20013;-58
2024/04/11 13:45:35;;;;;;;0.40;0.30;;;;;;;;;;5478498;26;20409;-61
2024/04/11 13:48:01;;;;;;;0.40;0.40;;;;;;;;;;5482156;26;20010;-59
2024/04/11 13:53:32;;;;;;;0.25;0.25;;;;;;;;;;5454120;26;19998;-63
2024/04/11 13:55:57;;;;;;;0.40;0.30;;;;;;;;;;5474643;26;20009;-60
2024/04/11 13:58:23;;;;;;;0.30;0.30;;;;;;;;;;5480624;26;20017;-59
2024/04/11 14:00:52;;;;;;;1.50;0.35;;;;;;;;;;5484689;26;20071;-59
2024/04/11 14:03:23;;;;;;;1.83;0.28;;;;;;;;;;5484191;26;20068;-60
2024/04/11 14:08:37;;;;;;;0.73;0.40;;;;;;;;;;5464145;26;19990;-62
2024/04/11 14:11:04;;;;;;;0.47;0.40;;;;;;;;;;5485005;26;19998;-61
2024/04/11 14:13:36;;;;;;;0.43;0.30;;;;;;;;;;5476474;26;19995;-50
2024/04/11 14:16:04;;;;;;;0.45;0.38;;;;;;;;;;5479162;26;20006;-50
2024/04/11 14:18:34;;;;;;;0.77;0.38;;;;;;;;;;5482413;26;19994;-52
2024/04/11 14:21:17;;;;;;;0.75;0.32;;;;;;;;;;5484246;26;20358;-49
2024/04/11 14:23:53;;;;;;;;;;;;;;;;;;5483165;26;20426;-52
2024/04/11 14:26:35;;;;;;;0.30;0.30;;;;;;;;;;5484149;26;19923;-50
2024/04/11 14:29:07;;;;;;;0.30;0.30;;;;;;;;;;5477675;26;19999;-48
2024/04/11 14:31:34;;;;;;;0.30;0.30;;;;;;;;;;5484097;26;19994;-52
2024/04/11 14:36:27;;;;;;;0.55;0.43;;;;;;;;;;5484607;26;20182;-59
2024/04/11 14:39:05;;;;;;;0.55;0.40;;;;;;;;;;5482192;26;20002;-61
2024/04/11 14:41:30;;;;;;;0.45;0.40;;;;;;;;;;5483775;26;20013;-54
2024/04/11 14:43:59;;;;;;;0.85;0.50;;;;;;;;;;5484181;26;19997;-58
2024/04/11 14:46:25;;;;;;;1.63;0.40;;;;;;;;;;5483146;26;20005;-59
2024/04/11 14:48:56;;;;;;;0.30;0.30;;;;;;;;;;5484128;26;19998;-60
2024/04/11 14:51:26;;;;;;;0.75;0.50;;;;;;;;;;5484103;26;20497;-57
2024/04/11 14:53:52;;;;;;;0.77;0.40;;;;;;;;;;5474777;26;20013;-62
2024/04/11 14:56:18;;;;;;;0.40;0.30;;;;;;;;;;5483830;26;20334;-60
2024/04/11 14:58:47;;;;;;;1.13;0.40;;;;;;;;;;5479720;26;20002;-53
2024/04/11 15:01:14;;;;;;;15.25;0.50;;;;;;;;;;5482778;26;20062;-61
2024/04/11 15:03:41;;;;;;;0.82;0.30;;;;;;;;;;5481501;26;20002;-57